createdAt,value
2017-06-16T00:00:23.650Z,1007.12
2017-06-16T00:01:04.533Z,1007.09
2017-06-16T00:01:45.433Z,1007.07
2017-06-16T00:02:26.335Z,1007.05
2017-06-16T00:03:07.249Z,1007.04
2017-06-16T00:03:48.142Z,1007.05
2017-06-16T00:04:29.032Z,1007.05
2017-06-16T00:05:09.929Z,1007.04
2017-06-16T00:05:50.817Z,1007.04
2017-06-16T00:06:31.719Z,1007.03
2017-06-16T00:07:12.608Z,1007
2017-06-16T00:07:53.501Z,1007.1
2017-06-16T00:08:34.401Z,1007.09
2017-06-16T00:09:15.282Z,1007.12
2017-06-16T00:09:56.175Z,1007.14
2017-06-16T00:10:37.057Z,1007.12
2017-06-16T00:11:17.962Z,1007.15
2017-06-16T00:11:58.863Z,1007.16
2017-06-16T00:12:39.753Z,1007.21
2017-06-16T00:13:20.633Z,1007.23
2017-06-16T00:14:01.526Z,1007.25
2017-06-16T00:14:42.418Z,1007.28
2017-06-16T00:15:23.310Z,1007.27
2017-06-16T00:16:04.215Z,1007.3
2017-06-16T00:16:46.695Z,1007.32
2017-06-16T00:17:27.560Z,1007.32
2017-06-16T00:18:08.442Z,1007.29
2017-06-16T00:18:49.343Z,1007.28
2017-06-16T00:19:30.244Z,1007.23
2017-06-16T00:20:11.143Z,1007.24
2017-06-16T00:20:52.049Z,1007.23
2017-06-16T00:21:32.943Z,1007.22
2017-06-16T00:22:13.839Z,1007.22
2017-06-16T00:22:54.740Z,1007.18
2017-06-16T00:23:35.629Z,1007.22
2017-06-16T00:24:16.524Z,1007.25
2017-06-16T00:24:57.417Z,1007.28
2017-06-16T00:25:38.295Z,1007.32
2017-06-16T00:26:19.186Z,1007.35
2017-06-16T00:27:00.089Z,1007.38
2017-06-16T00:27:40.982Z,1007.44
2017-06-16T00:28:21.876Z,1007.43
2017-06-16T00:29:02.772Z,1007.49
2017-06-16T00:29:43.669Z,1007.48
2017-06-16T00:30:24.569Z,1007.52
2017-06-16T00:31:05.465Z,1007.52
2017-06-16T00:31:46.361Z,1007.53
2017-06-16T00:32:27.258Z,1007.53
2017-06-16T00:33:08.149Z,1007.59
2017-06-16T00:33:49.059Z,1007.57
2017-06-16T00:34:29.955Z,1007.62
2017-06-16T00:35:10.882Z,1007.64
2017-06-16T00:35:51.778Z,1007.59
2017-06-16T00:36:32.683Z,1007.58
2017-06-16T00:37:13.559Z,1007.59
2017-06-16T00:37:54.448Z,1007.55
2017-06-16T00:38:35.351Z,1007.55
2017-06-16T00:39:16.247Z,1007.52
2017-06-16T00:39:57.129Z,1007.51
2017-06-16T00:40:38.032Z,1007.51
2017-06-16T00:41:18.928Z,1007.49
2017-06-16T00:41:59.804Z,1007.49
2017-06-16T00:42:40.705Z,1007.49
2017-06-16T00:43:21.598Z,1007.52
2017-06-16T00:44:02.481Z,1007.55
2017-06-16T00:44:43.379Z,1007.54
2017-06-16T00:45:24.276Z,1007.55
2017-06-16T00:46:05.174Z,1007.55
2017-06-16T00:46:46.079Z,1007.57
2017-06-16T00:47:26.966Z,1007.57
2017-06-16T00:48:07.864Z,1007.6
2017-06-16T00:48:48.770Z,1007.65
2017-06-16T00:49:29.664Z,1007.66
2017-06-16T00:50:10.568Z,1007.69
2017-06-16T00:50:51.469Z,1007.71
2017-06-16T00:51:32.352Z,1007.72
2017-06-16T00:52:13.278Z,1007.75
2017-06-16T00:52:54.182Z,1007.74
2017-06-16T00:53:35.083Z,1007.7
2017-06-16T00:54:16.966Z,1007.71
2017-06-16T00:54:57.866Z,1007.71
2017-06-16T00:55:38.764Z,1007.75
2017-06-16T00:56:19.656Z,1007.76
2017-06-16T00:57:00.544Z,1007.75
2017-06-16T00:57:41.440Z,1007.77
2017-06-16T00:58:22.337Z,1007.81
2017-06-16T00:59:03.228Z,1007.76
2017-06-16T00:59:44.135Z,1007.83
2017-06-16T01:00:25.033Z,1007.83
2017-06-16T01:01:05.933Z,1007.83
2017-06-16T01:01:46.832Z,1007.81
2017-06-16T01:02:27.730Z,1007.79
2017-06-16T01:03:08.638Z,1007.77
2017-06-16T01:03:49.533Z,1007.79
2017-06-16T01:04:30.422Z,1007.82
2017-06-16T01:05:11.324Z,1007.8
2017-06-16T01:05:52.219Z,1007.79
2017-06-16T01:06:33.124Z,1007.76
2017-06-16T01:07:14.013Z,1007.78
2017-06-16T01:07:54.897Z,1007.83
2017-06-16T01:08:35.790Z,1007.87
2017-06-16T01:09:16.690Z,1007.83
2017-06-16T01:09:57.590Z,1007.84
2017-06-16T01:10:38.487Z,1007.8
2017-06-16T01:11:19.375Z,1007.83
2017-06-16T01:12:00.316Z,1007.85
2017-06-16T01:12:41.210Z,1007.87
2017-06-16T01:13:22.111Z,1007.88
2017-06-16T01:14:03.014Z,1007.88
2017-06-16T01:14:43.906Z,1007.9
2017-06-16T01:15:24.807Z,1007.96
2017-06-16T01:16:05.734Z,1007.94
2017-06-16T01:16:46.611Z,1007.96
2017-06-16T01:17:27.510Z,1007.9
2017-06-16T01:18:08.413Z,1007.88
2017-06-16T01:18:49.329Z,1007.87
2017-06-16T01:19:30.218Z,1007.87
2017-06-16T01:20:11.119Z,1007.85
2017-06-16T01:20:52.004Z,1007.91
2017-06-16T01:21:32.906Z,1007.88
2017-06-16T01:22:13.811Z,1007.92
2017-06-16T01:22:54.688Z,1007.89
2017-06-16T01:23:35.573Z,1007.89
2017-06-16T01:24:16.473Z,1007.89
2017-06-16T01:24:57.396Z,1007.86
2017-06-16T01:25:38.262Z,1007.87
2017-06-16T01:26:19.169Z,1007.87
2017-06-16T01:27:00.095Z,1007.85
2017-06-16T01:27:41.057Z,1007.87
2017-06-16T01:28:21.949Z,1007.82
2017-06-16T01:29:02.845Z,1007.85
2017-06-16T01:29:43.734Z,1007.83
2017-06-16T01:30:24.624Z,1007.85
2017-06-16T01:31:05.553Z,1007.83
2017-06-16T01:31:46.408Z,1007.79
2017-06-16T01:32:27.302Z,1007.79
2017-06-16T01:33:08.198Z,1007.79
2017-06-16T01:33:49.087Z,1007.77
2017-06-16T01:34:29.978Z,1007.77
2017-06-16T01:35:10.942Z,1007.75
2017-06-16T01:35:51.841Z,1007.73
2017-06-16T01:36:32.724Z,1007.71
2017-06-16T01:37:13.612Z,1007.72
2017-06-16T01:37:54.525Z,1007.71
2017-06-16T01:38:35.407Z,1007.68
2017-06-16T01:39:16.291Z,1007.69
2017-06-16T01:39:57.196Z,1007.66
2017-06-16T01:40:38.090Z,1007.69
2017-06-16T01:41:18.977Z,1007.69
2017-06-16T01:41:59.873Z,1007.72
2017-06-16T01:42:40.770Z,1007.73
2017-06-16T01:43:21.670Z,1007.72
2017-06-16T01:44:02.588Z,1007.75
2017-06-16T01:44:43.474Z,1007.71
2017-06-16T01:45:24.376Z,1007.73
2017-06-16T01:46:05.271Z,1007.72
2017-06-16T01:46:46.151Z,1007.74
2017-06-16T01:47:27.042Z,1007.73
2017-06-16T01:48:07.951Z,1007.71
2017-06-16T01:48:48.843Z,1007.69
2017-06-16T01:49:29.770Z,1007.71
2017-06-16T01:50:10.674Z,1007.74
2017-06-16T01:50:51.571Z,1007.75
2017-06-16T01:51:32.469Z,1007.75
2017-06-16T01:52:13.356Z,1007.77
2017-06-16T01:52:54.246Z,1007.79
2017-06-16T01:53:35.147Z,1007.77
2017-06-16T01:54:16.041Z,1007.81
2017-06-16T01:54:56.924Z,1007.81
2017-06-16T01:55:37.818Z,1007.79
2017-06-16T01:56:18.721Z,1007.83
2017-06-16T01:56:59.602Z,1007.86
2017-06-16T01:57:40.496Z,1007.84
2017-06-16T02:00:09.633Z,1007.87
2017-06-16T02:00:50.531Z,1007.84
2017-06-16T02:01:31.423Z,1007.86
2017-06-16T02:02:12.320Z,1007.83
2017-06-16T02:02:53.217Z,1007.82
2017-06-16T02:03:34.112Z,1007.81
2017-06-16T02:04:15.011Z,1007.84
2017-06-16T02:04:55.893Z,1007.81
2017-06-16T02:05:36.806Z,1007.83
2017-06-16T02:06:17.680Z,1007.79
2017-06-16T02:06:58.580Z,1007.82
2017-06-16T02:07:39.948Z,1007.81
2017-06-16T02:08:20.852Z,1007.81
2017-06-16T02:09:01.746Z,1007.81
2017-06-16T02:09:42.631Z,1007.8
2017-06-16T02:10:23.529Z,1007.78
2017-06-16T02:11:04.418Z,1007.75
2017-06-16T02:11:45.301Z,1007.76
2017-06-16T02:12:26.213Z,1007.75
2017-06-16T02:13:07.091Z,1007.77
2017-06-16T02:13:47.979Z,1007.77
2017-06-16T02:14:28.874Z,1007.77
2017-06-16T02:15:09.769Z,1007.76
2017-06-16T02:15:50.654Z,1007.77
2017-06-16T02:16:31.541Z,1007.75
2017-06-16T02:17:12.426Z,1007.8
2017-06-16T02:17:53.319Z,1007.81
2017-06-16T02:18:34.210Z,1007.79
2017-06-16T02:19:15.113Z,1007.79
2017-06-16T02:19:56.004Z,1007.81
2017-06-16T02:20:36.899Z,1007.79
2017-06-16T02:21:17.797Z,1007.8
2017-06-16T02:21:58.692Z,1007.78
2017-06-16T02:22:39.575Z,1007.76
2017-06-16T02:23:21.443Z,1007.75
2017-06-16T02:24:02.346Z,1007.74
2017-06-16T02:24:43.237Z,1007.76
2017-06-16T02:25:24.134Z,1007.75
2017-06-16T02:26:05.033Z,1007.75
2017-06-16T02:26:45.935Z,1007.74
2017-06-16T02:27:26.821Z,1007.74
2017-06-16T02:28:07.725Z,1007.77
2017-06-16T02:28:48.620Z,1007.77
2017-06-16T02:29:29.528Z,1007.75
2017-06-16T02:30:10.411Z,1007.78
2017-06-16T02:30:51.309Z,1007.8
2017-06-16T02:31:32.712Z,1007.76
2017-06-16T02:32:13.612Z,1007.78
2017-06-16T02:32:54.501Z,1007.74
2017-06-16T02:33:35.409Z,1007.79
2017-06-16T02:34:16.298Z,1007.78
2017-06-16T02:34:57.199Z,1007.8
2017-06-16T02:35:38.098Z,1007.83
2017-06-16T02:36:18.991Z,1007.83
2017-06-16T02:36:59.881Z,1007.78
2017-06-16T02:37:40.781Z,1007.84
2017-06-16T02:38:21.677Z,1007.81
2017-06-16T02:39:02.570Z,1007.82
2017-06-16T02:39:43.461Z,1007.77
2017-06-16T02:40:24.353Z,1007.77
2017-06-16T02:41:05.253Z,1007.77
2017-06-16T02:41:46.159Z,1007.74
2017-06-16T02:42:27.054Z,1007.77
2017-06-16T02:43:07.952Z,1007.73
2017-06-16T02:43:48.847Z,1007.78
2017-06-16T02:44:29.743Z,1007.76
2017-06-16T02:45:10.631Z,1007.78
2017-06-16T02:45:51.537Z,1007.71
2017-06-16T02:46:32.426Z,1007.77
2017-06-16T02:47:13.312Z,1007.74
2017-06-16T02:47:54.208Z,1007.76
2017-06-16T02:48:35.106Z,1007.75
2017-06-16T02:49:15.995Z,1007.77
2017-06-16T02:49:56.894Z,1007.8
2017-06-16T02:50:37.795Z,1007.74
2017-06-16T02:51:18.700Z,1007.76
2017-06-16T02:51:59.595Z,1007.74
2017-06-16T02:52:40.492Z,1007.69
2017-06-16T02:53:21.390Z,1007.69
2017-06-16T02:54:03.218Z,1007.71
2017-06-16T02:54:44.121Z,1007.74
2017-06-16T02:55:25.020Z,1007.68
2017-06-16T02:56:05.925Z,1007.7
2017-06-16T02:56:46.816Z,1007.7
2017-06-16T02:57:27.714Z,1007.7
2017-06-16T02:58:08.617Z,1007.71
2017-06-16T02:58:49.506Z,1007.75
2017-06-16T02:59:30.402Z,1007.68
2017-06-16T03:00:11.294Z,1007.66
2017-06-16T03:00:52.185Z,1007.65
2017-06-16T03:01:33.141Z,1007.61
2017-06-16T03:02:14.039Z,1007.61
2017-06-16T03:02:54.915Z,1007.61
2017-06-16T03:03:35.814Z,1007.66
2017-06-16T03:04:16.722Z,1007.66
2017-06-16T03:04:57.608Z,1007.64
2017-06-16T03:05:38.499Z,1007.66
2017-06-16T03:06:19.391Z,1007.66
2017-06-16T03:07:00.294Z,1007.66
2017-06-16T03:07:41.185Z,1007.66
2017-06-16T03:08:22.091Z,1007.68
2017-06-16T03:09:02.984Z,1007.65
2017-06-16T03:09:43.878Z,1007.64
2017-06-16T03:10:24.813Z,1007.65
2017-06-16T03:11:05.680Z,1007.67
2017-06-16T03:11:46.579Z,1007.65
2017-06-16T03:12:27.478Z,1007.68
2017-06-16T03:13:08.362Z,1007.67
2017-06-16T03:13:49.272Z,1007.67
2017-06-16T03:14:30.158Z,1007.69
2017-06-16T03:15:11.056Z,1007.68
2017-06-16T03:15:51.946Z,1007.64
2017-06-16T03:16:32.838Z,1007.68
2017-06-16T03:17:13.731Z,1007.68
2017-06-16T03:17:54.634Z,1007.69
2017-06-16T03:18:35.527Z,1007.7
2017-06-16T03:19:16.422Z,1007.7
2017-06-16T03:19:57.328Z,1007.7
2017-06-16T03:20:38.216Z,1007.74
2017-06-16T03:21:19.118Z,1007.72
2017-06-16T03:22:00.014Z,1007.72
2017-06-16T03:22:40.894Z,1007.73
2017-06-16T03:23:21.784Z,1007.7
2017-06-16T03:24:02.685Z,1007.75
2017-06-16T03:24:43.574Z,1007.77
2017-06-16T03:25:24.481Z,1007.79
2017-06-16T03:26:05.356Z,1007.83
2017-06-16T03:26:46.254Z,1007.78
2017-06-16T03:27:27.152Z,1007.83
2017-06-16T03:28:08.045Z,1007.77
2017-06-16T03:28:48.934Z,1007.81
2017-06-16T03:29:29.842Z,1007.76
2017-06-16T03:30:10.728Z,1007.78
2017-06-16T03:30:51.617Z,1007.78
2017-06-16T03:31:32.516Z,1007.76
2017-06-16T03:32:13.396Z,1007.78
2017-06-16T03:32:54.277Z,1007.78
2017-06-16T03:33:35.168Z,1007.75
2017-06-16T03:34:16.072Z,1007.76
2017-06-16T03:34:56.968Z,1007.8
2017-06-16T03:35:37.879Z,1007.79
2017-06-16T03:36:18.759Z,1007.76
2017-06-16T03:36:59.665Z,1007.78
2017-06-16T03:37:40.564Z,1007.78
2017-06-16T03:38:21.454Z,1007.81
2017-06-16T03:39:02.358Z,1007.83
2017-06-16T03:39:43.241Z,1007.79
2017-06-16T03:40:24.129Z,1007.78
2017-06-16T03:41:05.037Z,1007.8
2017-06-16T03:41:45.917Z,1007.81
2017-06-16T03:42:26.800Z,1007.79
2017-06-16T03:43:07.700Z,1007.81
2017-06-16T03:43:48.584Z,1007.83
2017-06-16T03:44:29.476Z,1007.83
2017-06-16T03:45:10.384Z,1007.81
2017-06-16T03:45:51.261Z,1007.85
2017-06-16T03:46:32.155Z,1007.82
2017-06-16T03:47:13.062Z,1007.89
2017-06-16T03:47:53.939Z,1007.87
2017-06-16T03:48:34.841Z,1007.86
2017-06-16T03:49:15.744Z,1007.87
2017-06-16T03:49:56.632Z,1007.83
2017-06-16T03:50:37.531Z,1007.86
2017-06-16T03:51:18.437Z,1007.9
2017-06-16T03:51:59.322Z,1007.89
2017-06-16T03:52:40.221Z,1007.89
2017-06-16T03:53:21.114Z,1007.86
2017-06-16T03:54:02.002Z,1007.91
2017-06-16T03:54:42.906Z,1007.9
2017-06-16T03:55:23.790Z,1007.87
2017-06-16T03:56:04.677Z,1007.85
2017-06-16T03:56:45.591Z,1007.85
2017-06-16T03:57:26.476Z,1007.82
2017-06-16T03:58:07.376Z,1007.84
2017-06-16T03:58:49.060Z,1007.82
2017-06-16T03:59:29.158Z,1007.85
2017-06-16T04:00:10.062Z,1007.83
2017-06-16T04:00:50.961Z,1007.87
2017-06-16T04:01:31.835Z,1007.88
2017-06-16T04:02:12.728Z,1007.88
2017-06-16T04:02:53.618Z,1007.89
2017-06-16T04:03:34.499Z,1007.92
2017-06-16T04:04:15.398Z,1007.89
2017-06-16T04:04:56.294Z,1007.9
2017-06-16T04:05:37.172Z,1007.89
2017-06-16T04:06:18.088Z,1007.91
2017-06-16T04:06:58.972Z,1007.9
2017-06-16T04:07:39.867Z,1007.9
2017-06-16T04:08:20.767Z,1007.93
2017-06-16T04:09:01.685Z,1007.92
2017-06-16T04:09:42.544Z,1007.93
2017-06-16T04:10:23.436Z,1007.95
2017-06-16T04:11:04.340Z,1007.95
2017-06-16T04:11:45.215Z,1007.96
2017-06-16T04:12:26.109Z,1007.97
2017-06-16T04:13:07.004Z,1007.95
2017-06-16T04:13:47.894Z,1007.98
2017-06-16T04:14:28.780Z,1007.95
2017-06-16T04:15:09.674Z,1007.91
2017-06-16T04:15:50.566Z,1007.99
2017-06-16T04:16:31.475Z,1008
2017-06-16T04:17:12.371Z,1008
2017-06-16T04:17:53.278Z,1007.99
2017-06-16T04:18:34.160Z,1008.04
2017-06-16T04:19:15.047Z,1008.04
2017-06-16T04:19:55.932Z,1008.01
2017-06-16T04:20:36.840Z,1008.02
2017-06-16T04:21:17.729Z,1008.02
2017-06-16T04:21:58.626Z,1008.07
2017-06-16T04:22:39.523Z,1008.07
2017-06-16T04:23:20.416Z,1008.05
2017-06-16T04:24:01.292Z,1008.04
2017-06-16T04:24:42.219Z,1008.02
2017-06-16T04:25:23.089Z,1008.08
2017-06-16T04:26:04.010Z,1008.09
2017-06-16T04:26:44.893Z,1008.09
2017-06-16T04:27:25.773Z,1008.07
2017-06-16T04:28:06.671Z,1008.09
2017-06-16T04:28:47.561Z,1008.11
2017-06-16T04:29:28.439Z,1008.1
2017-06-16T04:30:09.338Z,1008.07
2017-06-16T04:30:50.233Z,1008.14
2017-06-16T04:31:31.136Z,1008.12
2017-06-16T04:32:12.040Z,1008.1
2017-06-16T04:32:52.937Z,1008.19
2017-06-16T04:33:33.836Z,1008.16
2017-06-16T04:34:14.728Z,1008.16
2017-06-16T04:34:55.664Z,1008.22
2017-06-16T04:35:36.563Z,1008.21
2017-06-16T04:36:17.475Z,1008.22
2017-06-16T04:36:58.409Z,1008.24
2017-06-16T04:37:39.310Z,1008.23
2017-06-16T04:38:20.203Z,1008.26
2017-06-16T04:39:01.097Z,1008.24
2017-06-16T04:39:41.993Z,1008.32
2017-06-16T04:40:22.884Z,1008.25
2017-06-16T04:41:03.777Z,1008.29
2017-06-16T04:41:44.676Z,1008.24
2017-06-16T04:42:25.573Z,1008.24
2017-06-16T04:43:06.480Z,1008.27
2017-06-16T04:43:47.373Z,1008.28
2017-06-16T04:44:28.253Z,1008.23
2017-06-16T04:45:09.154Z,1008.25
2017-06-16T04:45:50.033Z,1008.27
2017-06-16T04:46:30.925Z,1008.29
2017-06-16T04:47:11.819Z,1008.24
2017-06-16T04:47:52.706Z,1008.24
2017-06-16T04:48:33.634Z,1008.27
2017-06-16T04:49:14.523Z,1008.32
2017-06-16T04:49:55.413Z,1008.36
2017-06-16T04:50:36.313Z,1008.36
2017-06-16T04:51:17.199Z,1008.29
2017-06-16T04:51:58.097Z,1008.35
2017-06-16T04:52:39.002Z,1008.39
2017-06-16T04:53:19.887Z,1008.35
2017-06-16T04:54:00.832Z,1008.3
2017-06-16T04:54:41.716Z,1008.35
2017-06-16T04:55:22.626Z,1008.31
2017-06-16T04:56:03.514Z,1008.29
2017-06-16T04:56:44.403Z,1008.31
2017-06-16T04:57:25.302Z,1008.33
2017-06-16T04:58:06.194Z,1008.31
2017-06-16T04:58:47.087Z,1008.32
2017-06-16T04:59:27.991Z,1008.22
2017-06-16T05:00:08.892Z,1008.21
2017-06-16T05:00:49.781Z,1008.21
2017-06-16T05:01:30.676Z,1008.21
2017-06-16T05:02:11.584Z,1008.18
2017-06-16T05:02:52.494Z,1008.19
2017-06-16T05:03:33.400Z,1008.16
2017-06-16T05:04:14.270Z,1008.15
2017-06-16T05:04:55.161Z,1008.19
2017-06-16T05:05:36.048Z,1008.24
2017-06-16T05:06:16.947Z,1008.25
2017-06-16T05:06:57.890Z,1008.25
2017-06-16T05:07:38.806Z,1008.29
2017-06-16T05:08:19.687Z,1008.28
2017-06-16T05:09:00.590Z,1008.3
2017-06-16T05:09:41.491Z,1008.29
2017-06-16T05:10:22.346Z,1008.35
2017-06-16T05:11:03.243Z,1008.38
2017-06-16T05:11:44.149Z,1008.38
2017-06-16T05:12:25.026Z,1008.4
2017-06-16T05:13:05.927Z,1008.41
2017-06-16T05:13:46.806Z,1008.46
2017-06-16T05:14:27.710Z,1008.4
2017-06-16T05:15:08.590Z,1008.45
2017-06-16T05:15:49.490Z,1008.39
2017-06-16T05:18:19.605Z,1008.43
2017-06-16T05:19:00.510Z,1008.36
2017-06-16T05:19:41.398Z,1008.42
2017-06-16T05:20:22.291Z,1008.36
2017-06-16T05:21:03.180Z,1008.41
2017-06-16T05:21:44.079Z,1008.31
2017-06-16T05:22:24.979Z,1008.4
2017-06-16T05:23:05.863Z,1008.43
2017-06-16T05:23:46.759Z,1008.43
2017-06-16T05:24:27.652Z,1008.39
2017-06-16T05:25:08.545Z,1008.46
2017-06-16T05:25:49.437Z,1008.43
2017-06-16T05:26:30.328Z,1008.42
2017-06-16T05:27:11.211Z,1008.43
2017-06-16T05:27:52.110Z,1008.45
2017-06-16T05:28:32.999Z,1008.44
2017-06-16T05:29:13.877Z,1008.47
2017-06-16T05:29:54.764Z,1008.4
2017-06-16T05:30:35.662Z,1008.48
2017-06-16T05:31:16.550Z,1008.46
2017-06-16T05:31:57.454Z,1008.45
2017-06-16T05:32:38.355Z,1008.5
2017-06-16T05:33:19.276Z,1008.5
2017-06-16T05:34:00.172Z,1008.55
2017-06-16T05:34:41.065Z,1008.48
2017-06-16T05:35:21.964Z,1008.47
2017-06-16T05:36:02.855Z,1008.49
2017-06-16T05:36:43.756Z,1008.49
2017-06-16T05:37:24.661Z,1008.5
2017-06-16T05:38:05.533Z,1008.46
2017-06-16T05:38:46.444Z,1008.5
2017-06-16T05:39:27.349Z,1008.53
2017-06-16T05:40:08.254Z,1008.49
2017-06-16T05:40:49.129Z,1008.48
2017-06-16T05:41:30.011Z,1008.46
2017-06-16T05:42:10.907Z,1008.48
2017-06-16T05:42:51.826Z,1008.42
2017-06-16T05:43:32.711Z,1008.48
2017-06-16T05:44:13.610Z,1008.45
2017-06-16T05:44:54.511Z,1008.48
2017-06-16T05:45:35.404Z,1008.47
2017-06-16T05:46:16.304Z,1008.52
2017-06-16T05:48:15.103Z,1008.53
2017-06-16T05:48:55.987Z,1008.6
2017-06-16T05:49:36.874Z,1008.54
2017-06-16T05:50:17.774Z,1008.56
2017-06-16T05:50:58.677Z,1008.53
2017-06-16T05:51:39.579Z,1008.55
2017-06-16T05:52:20.467Z,1008.56
2017-06-16T05:53:01.377Z,1008.57
2017-06-16T05:53:42.250Z,1008.57
2017-06-16T05:54:23.130Z,1008.52
2017-06-16T05:55:04.024Z,1008.54
2017-06-16T05:55:44.917Z,1008.54
2017-06-16T05:56:25.820Z,1008.53
2017-06-16T05:57:06.726Z,1008.52
2017-06-16T05:57:47.602Z,1008.58
2017-06-16T05:58:28.499Z,1008.57
2017-06-16T05:59:09.386Z,1008.58
2017-06-16T05:59:50.307Z,1008.57
2017-06-16T06:00:31.193Z,1008.55
2017-06-16T06:01:12.091Z,1008.57
2017-06-16T06:01:52.991Z,1008.6
2017-06-16T06:02:33.874Z,1008.62
2017-06-16T06:03:14.811Z,1008.61
2017-06-16T06:03:55.706Z,1008.59
2017-06-16T06:04:36.578Z,1008.65
2017-06-16T06:05:17.490Z,1008.64
2017-06-16T06:05:58.367Z,1008.66
2017-06-16T06:06:39.262Z,1008.71
2017-06-16T06:07:20.162Z,1008.7
2017-06-16T06:08:01.042Z,1008.7
2017-06-16T06:08:41.947Z,1008.7
2017-06-16T06:09:22.841Z,1008.73
2017-06-16T06:10:03.734Z,1008.7
2017-06-16T06:10:44.639Z,1008.75
2017-06-16T06:12:23.123Z,1008.69
2017-06-16T06:13:04.016Z,1008.72
2017-06-16T06:13:44.908Z,1008.78
2017-06-16T06:14:25.847Z,1008.75
2017-06-16T06:15:06.704Z,1008.74
2017-06-16T06:15:47.608Z,1008.76
2017-06-16T06:16:28.502Z,1008.72
2017-06-16T06:17:09.408Z,1008.73
2017-06-16T06:17:50.325Z,1008.72
2017-06-16T06:18:31.201Z,1008.79
2017-06-16T06:19:12.118Z,1008.71
2017-06-16T06:19:53.009Z,1008.68
2017-06-16T06:21:31.430Z,1008.73
2017-06-16T06:22:12.323Z,1008.77
2017-06-16T06:22:53.331Z,1008.72
2017-06-16T06:23:34.196Z,1008.74
2017-06-16T06:24:15.086Z,1008.67
2017-06-16T06:24:55.981Z,1008.74
2017-06-16T06:25:36.895Z,1008.76
2017-06-16T06:26:17.795Z,1008.8
2017-06-16T06:26:58.675Z,1008.76
2017-06-16T06:27:39.555Z,1008.77
2017-06-16T06:29:18.044Z,1008.77
2017-06-16T06:29:58.930Z,1008.85
2017-06-16T06:30:39.831Z,1008.79
2017-06-16T06:31:20.728Z,1008.78
2017-06-16T06:32:01.614Z,1008.81
2017-06-16T06:32:42.523Z,1008.77
2017-06-16T06:33:23.412Z,1008.81
2017-06-16T06:34:04.312Z,1008.79
2017-06-16T06:34:45.320Z,1008.84
2017-06-16T06:35:26.223Z,1008.86
2017-06-16T06:36:07.231Z,1008.89
2017-06-16T06:36:48.074Z,1008.91
2017-06-16T06:37:28.967Z,1008.93
2017-06-16T06:38:09.870Z,1008.91
2017-06-16T06:38:50.776Z,1008.92
2017-06-16T06:39:31.654Z,1008.88
2017-06-16T06:40:12.625Z,1008.96
2017-06-16T06:40:53.518Z,1009.01
2017-06-16T06:41:34.422Z,1009.01
2017-06-16T06:42:15.333Z,1009.06
2017-06-16T06:42:56.230Z,1009.03
2017-06-16T06:43:37.123Z,1009.07
2017-06-16T06:44:18.027Z,1009.04
2017-06-16T06:44:58.911Z,1009.14
2017-06-16T06:46:58.455Z,1009.12
2017-06-16T06:47:40.312Z,1009.14
2017-06-16T06:48:21.222Z,1009.17
2017-06-16T06:49:02.945Z,1009.17
2017-06-16T06:49:44.250Z,1009.22
2017-06-16T06:50:25.153Z,1009.24
2017-06-16T06:51:06.023Z,1009.32
2017-06-16T06:51:46.949Z,1009.25
2017-06-16T06:52:27.819Z,1009.22
2017-06-16T06:53:08.751Z,1009.32
2017-06-16T06:53:49.632Z,1009.27
2017-06-16T06:54:30.554Z,1009.33
2017-06-16T06:55:11.463Z,1009.4
2017-06-16T06:55:52.355Z,1009.37
2017-06-16T06:56:33.279Z,1009.36
2017-06-16T06:57:14.173Z,1009.38
2017-06-16T06:57:55.039Z,1009.37
2017-06-16T06:58:35.947Z,1009.37
2017-06-16T06:59:16.865Z,1009.41
2017-06-16T06:59:57.806Z,1009.38
2017-06-16T07:00:38.699Z,1009.49
2017-06-16T07:01:19.618Z,1009.37
2017-06-16T07:02:00.543Z,1009.48
2017-06-16T07:02:41.461Z,1009.54
2017-06-16T07:03:22.425Z,1009.54
2017-06-16T07:05:00.893Z,1009.57
2017-06-16T07:05:41.797Z,1009.6
2017-06-16T07:06:22.715Z,1009.64
2017-06-16T07:07:03.600Z,1009.63
2017-06-16T07:07:44.574Z,1009.63
2017-06-16T07:08:25.482Z,1009.63
2017-06-16T07:10:34.518Z,1009.64
2017-06-16T07:11:15.401Z,1009.63
2017-06-16T07:11:56.317Z,1009.68
2017-06-16T07:12:37.208Z,1009.69
2017-06-16T07:13:18.135Z,1009.69
2017-06-16T07:13:59.000Z,1009.71
2017-06-16T07:14:39.941Z,1009.61
2017-06-16T07:15:20.869Z,1009.64
2017-06-16T07:16:01.774Z,1009.67
2017-06-16T07:16:42.661Z,1009.72
2017-06-16T07:17:23.596Z,1009.7
2017-06-16T07:18:04.449Z,1009.78
2017-06-16T07:18:46.972Z,1009.82
2017-06-16T07:19:27.889Z,1009.77
2017-06-16T07:20:08.789Z,1009.78
2017-06-16T07:20:49.693Z,1009.79
2017-06-16T07:21:30.597Z,1009.8
2017-06-16T07:22:11.443Z,1009.83
2017-06-16T07:22:52.332Z,1009.87
2017-06-16T07:23:33.230Z,1009.9
2017-06-16T07:24:14.118Z,1009.86
2017-06-16T07:24:57.940Z,1009.84
2017-06-16T07:25:38.836Z,1009.94
2017-06-16T07:26:19.730Z,1009.94
2017-06-16T07:27:00.621Z,1009.9
2017-06-16T07:27:41.514Z,1009.87
2017-06-16T07:28:22.440Z,1009.88
2017-06-16T07:29:03.298Z,1009.83
2017-06-16T07:29:44.157Z,1009.83
2017-06-16T07:30:25.039Z,1009.74
2017-06-16T07:31:05.945Z,1009.73
2017-06-16T07:31:46.833Z,1009.75
2017-06-16T07:32:27.747Z,1009.73
2017-06-16T07:33:08.686Z,1009.72
2017-06-16T07:33:51.223Z,1009.75
2017-06-16T07:34:32.129Z,1009.73
2017-06-16T07:35:13.046Z,1009.73
2017-06-16T07:35:53.931Z,1009.73
2017-06-16T07:36:34.857Z,1009.73
2017-06-16T07:37:15.763Z,1009.69
2017-06-16T07:37:56.664Z,1009.68
2017-06-16T07:38:37.566Z,1009.67
2017-06-16T07:39:18.513Z,1009.57
2017-06-16T07:39:59.412Z,1009.67
2017-06-16T07:40:40.358Z,1009.62
2017-06-16T07:41:21.262Z,1009.65
2017-06-16T07:42:04.224Z,1009.52
2017-06-16T07:42:45.120Z,1009.52
2017-06-16T07:43:26.020Z,1009.6
2017-06-16T07:44:06.926Z,1009.62
2017-06-16T07:44:47.818Z,1009.58
2017-06-16T07:45:28.718Z,1009.56
2017-06-16T07:46:09.589Z,1009.58
2017-06-16T07:46:52.210Z,1009.59
2017-06-16T07:47:33.104Z,1009.62
2017-06-16T07:48:13.995Z,1009.65
2017-06-16T07:48:54.877Z,1009.67
2017-06-16T07:49:35.781Z,1009.71
2017-06-16T07:50:16.682Z,1009.79
2017-06-16T07:50:57.586Z,1009.81
2017-06-16T07:53:06.612Z,1009.87
2017-06-16T07:53:47.504Z,1009.89
2017-06-16T07:54:29.068Z,1009.94
2017-06-16T07:55:09.997Z,1009.92
2017-06-16T07:58:41.983Z,1009.94
2017-06-16T07:59:22.869Z,1009.91
2017-06-16T08:00:03.791Z,1009.96
2017-06-16T08:00:44.672Z,1009.88
2017-06-16T08:01:25.554Z,1009.87
2017-06-16T08:02:06.463Z,1009.86
2017-06-16T08:02:47.348Z,1009.83
2017-06-16T08:03:28.236Z,1009.9
2017-06-16T08:04:09.130Z,1009.81
2017-06-16T08:04:50.026Z,1009.83
2017-06-16T08:05:30.907Z,1009.78
2017-06-16T08:06:11.800Z,1009.76
2017-06-16T08:06:52.691Z,1009.77
2017-06-16T08:07:33.579Z,1009.84
2017-06-16T08:09:11.962Z,1009.91
2017-06-16T08:09:52.853Z,1009.88
2017-06-16T08:10:33.754Z,1009.96
2017-06-16T08:11:14.635Z,1009.99
2017-06-16T08:11:55.526Z,1010.07
2017-06-16T08:12:36.419Z,1010.08
2017-06-16T08:13:17.319Z,1010.2
2017-06-16T08:13:58.194Z,1010.2
2017-06-16T08:14:39.105Z,1010.26
2017-06-16T08:15:19.994Z,1010.32
2017-06-16T08:16:00.881Z,1010.33
2017-06-16T08:16:41.765Z,1010.27
2017-06-16T08:17:22.658Z,1010.23
2017-06-16T08:18:03.550Z,1010.31
2017-06-16T08:18:44.439Z,1010.35
2017-06-16T08:19:25.345Z,1010.3
2017-06-16T08:20:06.233Z,1010.32
2017-06-16T08:20:47.136Z,1010.37
2017-06-16T08:21:28.027Z,1010.39
2017-06-16T08:22:08.919Z,1010.36
2017-06-16T08:22:49.815Z,1010.36
2017-06-16T08:23:30.698Z,1010.36
2017-06-16T08:24:11.587Z,1010.27
2017-06-16T08:24:52.484Z,1010.41
2017-06-16T08:25:33.398Z,1010.37
2017-06-16T08:26:14.302Z,1010.34
2017-06-16T08:26:55.201Z,1010.36
2017-06-16T08:27:36.124Z,1010.31
2017-06-16T08:28:17.026Z,1010.38
2017-06-16T08:28:57.910Z,1010.4
2017-06-16T08:29:38.820Z,1010.36
2017-06-16T08:30:19.710Z,1010.35
2017-06-16T08:31:00.631Z,1010.33
2017-06-16T08:31:41.521Z,1010.25
2017-06-16T08:32:22.430Z,1010.28
2017-06-16T08:33:03.327Z,1010.33